createdAt,value
2023-04-09T00:00:10.392Z,9.37
2023-04-09T00:02:57.421Z,8.97
2023-04-09T00:05:45.040Z,8.53
2023-04-09T00:08:33.506Z,7.50
2023-04-09T00:11:20.943Z,8.23
2023-04-09T00:14:07.775Z,8.50
2023-04-09T00:16:55.009Z,8.77
2023-04-09T00:19:42.504Z,7.87
2023-04-09T00:22:29.500Z,8.37
2023-04-09T00:25:18.292Z,9.53
2023-04-09T00:28:05.319Z,9.10
2023-04-09T00:30:52.038Z,9.60
2023-04-09T00:33:38.797Z,11.70
2023-04-09T00:36:27.133Z,9.40
2023-04-09T00:39:14.257Z,9.23
2023-04-09T00:42:03.552Z,8.77
2023-04-09T00:44:50.493Z,8.53
2023-04-09T00:47:37.485Z,8.90
2023-04-09T00:50:24.236Z,8.37
2023-04-09T00:53:12.367Z,8.13
2023-04-09T00:55:59.943Z,8.57
2023-04-09T00:58:48.548Z,8.83
2023-04-09T01:01:36.217Z,10.33
2023-04-09T01:04:24.205Z,8.87
2023-04-09T01:07:24.245Z,7.47
2023-04-09T01:10:20.104Z,8.27
2023-04-09T01:13:12.498Z,10.03
2023-04-09T01:16:04.437Z,9.20
2023-04-09T01:18:57.740Z,11.13
2023-04-09T01:21:46.635Z,10.87
2023-04-09T01:24:46.156Z,11.83
2023-04-09T01:27:45.142Z,12.63
2023-04-09T01:30:33.383Z,11.17
2023-04-09T01:33:21.926Z,11.47
2023-04-09T01:36:10.374Z,12.57
2023-04-09T01:38:58.206Z,10.67
2023-04-09T01:41:45.238Z,11.63
2023-04-09T01:44:33.106Z,12.13
2023-04-09T01:47:22.454Z,11.60
2023-04-09T01:50:12.540Z,10.83
2023-04-09T01:53:01.383Z,11.43
2023-04-09T01:55:48.639Z,11.33
2023-04-09T01:58:36.224Z,11.07
2023-04-09T02:01:27.599Z,11.30
2023-04-09T02:04:23.102Z,11.50
2023-04-09T02:07:15.618Z,11.80
2023-04-09T02:10:03.365Z,11.23
2023-04-09T02:12:52.631Z,8.57
2023-04-09T02:15:41.544Z,10.50
2023-04-09T02:18:30.207Z,10.37
2023-04-09T02:21:18.768Z,9.10
2023-04-09T02:24:05.922Z,9.10
2023-04-09T02:26:52.869Z,8.73
2023-04-09T02:29:40.950Z,8.40
2023-04-09T02:32:27.768Z,8.73
2023-04-09T02:35:15.359Z,6.20
2023-04-09T02:38:04.174Z,8.80
2023-04-09T02:40:51.625Z,8.50
2023-04-09T02:43:38.678Z,8.83
2023-04-09T02:46:25.417Z,8.60
2023-04-09T02:49:12.448Z,8.13
2023-04-09T02:51:59.260Z,8.43
2023-04-09T02:54:47.462Z,8.40
2023-04-09T02:57:34.723Z,8.77
2023-04-09T03:00:21.575Z,8.27
2023-04-09T03:03:08.537Z,7.73
2023-04-09T03:05:56.474Z,9.63
2023-04-09T03:08:43.621Z,7.57
2023-04-09T03:11:31.721Z,8.97
2023-04-09T03:14:18.567Z,7.67
2023-04-09T03:17:05.400Z,7.50
2023-04-09T03:19:52.462Z,8.20
2023-04-09T03:22:39.979Z,8.13
2023-04-09T03:25:27.239Z,7.60
2023-04-09T03:28:16.056Z,7.57
2023-04-09T03:31:03.073Z,8.87
2023-04-09T03:33:50.050Z,9.07
2023-04-09T03:36:37.245Z,8.53
2023-04-09T03:39:24.443Z,8.23
2023-04-09T03:42:11.297Z,8.20
2023-04-09T03:44:59.620Z,7.93
2023-04-09T03:47:46.945Z,8.87
2023-04-09T03:50:38.616Z,9.10
2023-04-09T03:53:25.429Z,8.53
2023-04-09T03:56:12.939Z,6.87
2023-04-09T03:58:59.894Z,7.50
2023-04-09T04:01:48.563Z,8.70
2023-04-09T04:04:35.560Z,8.13
2023-04-09T04:07:22.597Z,8.23
2023-04-09T04:10:10.968Z,7.93
2023-04-09T04:12:57.421Z,6.50
2023-04-09T04:15:44.698Z,8.50
2023-04-09T04:18:33.051Z,7.20
2023-04-09T04:21:19.918Z,7.87
2023-04-09T04:24:07.405Z,7.67
2023-04-09T04:26:54.619Z,7.93
2023-04-09T04:29:41.635Z,7.07
2023-04-09T04:32:28.430Z,7.63
2023-04-09T04:35:16.918Z,7.63
2023-04-09T04:38:03.991Z,6.97
2023-04-09T04:40:50.868Z,7.07
2023-04-09T04:43:37.561Z,7.03
2023-04-09T04:46:24.767Z,8.50
2023-04-09T04:49:11.607Z,7.43
2023-04-09T04:52:00.186Z,7.00
2023-04-09T04:54:47.402Z,7.10
2023-04-09T04:57:34.329Z,7.23
2023-04-09T05:00:21.295Z,7.03
2023-04-09T05:03:08.291Z,7.20
2023-04-09T05:05:55.602Z,7.20
2023-04-09T05:08:44.237Z,7.63
2023-04-09T05:11:31.318Z,7.43
2023-04-09T05:14:18.566Z,7.53
2023-04-09T05:17:06.246Z,7.07
2023-04-09T05:19:54.271Z,8.60
2023-04-09T05:22:41.440Z,9.40
2023-04-09T05:25:30.110Z,7.93
2023-04-09T05:28:17.945Z,8.87
2023-04-09T05:31:04.967Z,8.37
2023-04-09T05:34:01.725Z,8.53
2023-04-09T05:36:48.909Z,8.97
2023-04-09T05:39:35.969Z,7.70
2023-04-09T05:42:24.479Z,8.80
2023-04-09T05:45:14.426Z,8.10
2023-04-09T05:48:01.836Z,9.10
2023-04-09T05:50:55.377Z,6.97
2023-04-09T05:53:42.922Z,7.13
2023-04-09T05:56:29.809Z,8.03
2023-04-09T05:59:18.521Z,7.47
2023-04-09T06:02:05.773Z,7.03
2023-04-09T06:04:53.153Z,7.50
2023-04-09T06:07:42.807Z,7.70
2023-04-09T06:10:30.006Z,7.63
2023-04-09T06:13:17.217Z,6.27
2023-04-09T06:16:07.566Z,7.57
2023-04-09T06:18:57.107Z,7.40
2023-04-09T06:21:44.118Z,7.00
2023-04-09T06:24:33.777Z,7.77
2023-04-09T06:27:22.208Z,8.33
2023-04-09T06:30:10.810Z,6.67
2023-04-09T06:32:59.172Z,8.30
2023-04-09T06:35:47.031Z,8.23
2023-04-09T06:38:33.765Z,6.53
2023-04-09T06:41:22.544Z,7.20
2023-04-09T06:44:09.408Z,6.40
2023-04-09T06:46:56.612Z,5.43
2023-04-09T06:49:46.776Z,7.60
2023-04-09T06:52:33.884Z,6.23
2023-04-09T06:55:20.872Z,5.83
2023-04-09T06:58:08.100Z,6.60
2023-04-09T07:00:55.476Z,7.77
2023-04-09T07:03:42.537Z,6.50
2023-04-09T07:06:31.086Z,7.47
2023-04-09T07:09:18.565Z,6.93
2023-04-09T07:12:05.586Z,6.47
2023-04-09T07:14:52.701Z,5.27
2023-04-09T07:17:41.160Z,6.00
2023-04-09T07:20:28.113Z,6.13
2023-04-09T07:23:16.584Z,7.07
2023-04-09T07:26:04.147Z,6.47
2023-04-09T07:28:51.663Z,6.93
2023-04-09T07:31:38.877Z,5.53
2023-04-09T07:34:26.296Z,6.10
2023-04-09T07:37:13.174Z,7.43
2023-04-09T07:40:01.737Z,6.03
2023-04-09T07:42:52.098Z,5.70
2023-04-09T07:45:39.109Z,5.83
2023-04-09T07:48:28.228Z,5.37
2023-04-09T07:51:15.389Z,6.57
2023-04-09T07:54:01.960Z,5.50
2023-04-09T07:56:50.553Z,5.70
2023-04-09T07:59:37.542Z,5.43
2023-04-09T08:02:24.516Z,6.03
2023-04-09T08:05:12.067Z,5.60
2023-04-09T08:07:59.235Z,5.30
2023-04-09T08:10:46.456Z,5.40
2023-04-09T08:13:34.528Z,4.68
2023-04-09T08:16:23.697Z,4.78
2023-04-09T08:19:11.218Z,5.15
2023-04-09T08:21:58.937Z,5.50
2023-04-09T08:24:45.800Z,4.88
2023-04-09T08:27:34.098Z,4.57
2023-04-09T08:30:22.269Z,5.00
2023-04-09T08:33:09.161Z,4.50
2023-04-09T08:35:58.024Z,5.68
2023-04-09T08:38:47.155Z,5.00
2023-04-09T08:41:35.370Z,4.28
2023-04-09T08:44:22.473Z,4.50
2023-04-09T08:47:12.702Z,3.28
2023-04-09T08:49:59.437Z,3.60
2023-04-09T08:52:48.880Z,3.75
2023-04-09T08:55:37.477Z,4.00
2023-04-09T08:58:24.421Z,4.25
2023-04-09T09:01:23.613Z,4.57
2023-04-09T09:04:12.488Z,4.25
2023-04-09T09:07:08.063Z,3.25
2023-04-09T09:09:56.398Z,4.28
2023-04-09T09:12:44.058Z,3.42
2023-04-09T09:15:32.077Z,4.15
2023-04-09T09:18:19.963Z,4.20
2023-04-09T09:21:16.658Z,4.20
2023-04-09T09:24:17.234Z,3.50
2023-04-09T09:27:04.253Z,4.00
2023-04-09T09:29:51.069Z,3.97
2023-04-09T09:32:39.198Z,3.73
2023-04-09T09:35:26.674Z,3.83
2023-04-09T09:38:16.103Z,3.40
2023-04-09T09:41:18.023Z,3.33
2023-04-09T09:44:07.337Z,4.13
2023-04-09T09:46:54.844Z,4.30
2023-04-09T09:49:41.722Z,3.90
2023-04-09T09:52:28.897Z,3.33
2023-04-09T09:55:19.126Z,3.73
2023-04-09T09:58:13.720Z,3.70
2023-04-09T10:01:02.997Z,3.37
2023-04-09T10:03:54.168Z,3.97
2023-04-09T10:06:53.732Z,3.07
2023-04-09T10:09:42.989Z,3.57
2023-04-09T10:12:31.498Z,3.70
2023-04-09T10:15:19.343Z,3.83
2023-04-09T10:18:06.595Z,3.80
2023-04-09T10:20:59.922Z,3.70
2023-04-09T10:23:50.933Z,3.57
2023-04-09T10:26:41.668Z,3.43
2023-04-09T10:29:30.656Z,3.40
2023-04-09T10:32:22.634Z,2.90
2023-04-09T10:35:11.720Z,3.13
2023-04-09T10:38:06.118Z,3.67
2023-04-09T10:40:56.484Z,3.00
2023-04-09T10:43:54.604Z,3.30
2023-04-09T10:47:00.271Z,3.22
2023-04-09T10:49:52.647Z,3.13
2023-04-09T10:55:38.870Z,3.40
2023-04-09T10:58:26.158Z,2.80
2023-04-09T11:01:24.159Z,2.75
2023-04-09T11:04:21.609Z,2.58
2023-04-09T11:07:10.106Z,3.10
2023-04-09T11:09:57.059Z,2.90
2023-04-09T11:12:43.770Z,3.10
2023-04-09T11:15:31.104Z,2.80
2023-04-09T11:18:22.779Z,2.72
2023-04-09T11:21:13.491Z,2.67
2023-04-09T11:24:00.434Z,2.60
2023-04-09T11:26:48.721Z,2.67
2023-04-09T11:29:36.333Z,2.85
2023-04-09T11:32:23.444Z,3.03
2023-04-09T11:35:15.053Z,3.20
2023-04-09T11:38:07.895Z,3.00
2023-04-09T11:40:59.137Z,2.28
2023-04-09T11:43:46.383Z,2.90
2023-04-09T11:46:34.365Z,3.03
2023-04-09T11:49:22.146Z,2.65
2023-04-09T11:52:09.537Z,3.50
2023-04-09T11:55:01.300Z,3.45
2023-04-09T11:57:48.440Z,3.80
2023-04-09T12:00:35.753Z,3.30
2023-04-09T12:03:30.193Z,3.47
2023-04-09T12:06:22.858Z,4.30
2023-04-09T12:09:13.674Z,3.65
2023-04-09T12:12:02.229Z,3.67
2023-04-09T12:14:51.969Z,3.35
2023-04-09T12:17:39.357Z,3.50
2023-04-09T12:20:34.592Z,3.80
2023-04-09T12:23:21.593Z,3.17
2023-04-09T12:26:08.764Z,3.35
2023-04-09T12:28:57.227Z,3.15
2023-04-09T12:31:44.641Z,3.38
2023-04-09T12:34:31.657Z,3.50
2023-04-09T12:37:18.486Z,3.88
2023-04-09T12:40:05.752Z,3.20
2023-04-09T12:42:52.860Z,3.35
2023-04-09T12:45:40.991Z,2.95
2023-04-09T12:48:28.261Z,3.92
2023-04-09T12:51:16.005Z,3.58
2023-04-09T12:54:04.027Z,3.65
2023-04-09T12:56:51.833Z,3.67
2023-04-09T12:59:38.854Z,3.10
2023-04-09T13:02:27.331Z,3.90
2023-04-09T13:05:14.283Z,3.85
2023-04-09T13:08:01.021Z,3.30
2023-04-09T13:10:48.224Z,3.17
2023-04-09T13:13:34.883Z,3.03
2023-04-09T13:16:21.948Z,3.10
2023-04-09T13:19:11.246Z,2.75
2023-04-09T13:21:58.034Z,2.90
2023-04-09T13:24:44.903Z,3.30
2023-04-09T13:27:32.006Z,3.70
2023-04-09T13:30:19.481Z,3.40
2023-04-09T13:33:06.348Z,3.35
2023-04-09T13:35:54.528Z,3.13
2023-04-09T13:38:41.986Z,2.80
2023-04-09T13:41:31.427Z,3.43
2023-04-09T13:44:18.652Z,3.10
2023-04-09T13:47:05.380Z,3.10
2023-04-09T13:49:53.154Z,2.92
2023-04-09T13:52:41.726Z,3.38
2023-04-09T13:55:28.638Z,3.03
2023-04-09T13:58:15.598Z,3.10
2023-04-09T14:01:03.248Z,3.60
2023-04-09T14:03:55.714Z,3.10
2023-04-09T14:06:43.343Z,2.30
2023-04-09T14:09:31.967Z,3.43
2023-04-09T14:12:18.928Z,2.90
2023-04-09T14:15:07.265Z,2.80
2023-04-09T14:17:54.460Z,3.27
2023-04-09T14:20:41.312Z,3.10
2023-04-09T14:23:28.298Z,2.60
2023-04-09T14:26:17.144Z,2.80
2023-04-09T14:29:04.440Z,2.92
2023-04-09T14:31:51.832Z,3.03
2023-04-09T14:34:38.864Z,3.13
2023-04-09T14:37:25.912Z,2.70
2023-04-09T14:40:13.589Z,3.38
2023-04-09T14:43:02.204Z,2.97
2023-04-09T14:45:49.191Z,3.22
2023-04-09T14:48:36.022Z,3.45
2023-04-09T14:51:23.454Z,2.65
2023-04-09T14:54:10.335Z,2.70
2023-04-09T14:56:58.298Z,2.97
2023-04-09T14:59:46.872Z,2.70
2023-04-09T15:02:35.228Z,3.17
2023-04-09T15:05:22.767Z,2.40
2023-04-09T15:08:09.194Z,3.00
2023-04-09T15:10:55.958Z,2.97
2023-04-09T15:13:42.948Z,3.00
2023-04-09T15:16:33.340Z,3.33
2023-04-09T15:19:20.373Z,3.27
2023-04-09T15:22:07.034Z,3.33
2023-04-09T15:24:54.592Z,3.10
2023-04-09T15:27:41.324Z,3.10
2023-04-09T15:30:28.407Z,2.80
2023-04-09T15:33:16.981Z,2.60
2023-04-09T15:36:04.245Z,2.30
2023-04-09T15:38:54.270Z,2.57
2023-04-09T15:41:41.391Z,2.70
2023-04-09T15:44:28.552Z,2.60
2023-04-09T15:47:15.638Z,3.33
2023-04-09T15:50:04.180Z,2.60
2023-04-09T15:52:51.263Z,2.97
2023-04-09T15:55:38.345Z,2.80
2023-04-09T15:58:25.279Z,2.83
2023-04-09T16:01:15.137Z,3.20
2023-04-09T16:04:02.190Z,2.67
2023-04-09T16:06:50.635Z,2.97
2023-04-09T16:09:37.364Z,2.83
2023-04-09T16:12:24.942Z,3.57
2023-04-09T16:15:13.207Z,3.63
2023-04-09T16:18:00.600Z,3.13
2023-04-09T16:20:47.414Z,4.00
2023-04-09T16:23:35.573Z,2.93
2023-04-09T16:26:22.640Z,3.27
2023-04-09T16:29:09.521Z,3.50
2023-04-09T16:31:57.040Z,3.13
2023-04-09T16:34:44.202Z,2.90
2023-04-09T16:37:31.564Z,2.70
2023-04-09T16:40:24.211Z,2.97
2023-04-09T16:43:11.510Z,2.93
2023-04-09T16:45:58.409Z,3.25
2023-04-09T16:48:45.699Z,2.73
2023-04-09T16:51:32.174Z,3.37
2023-04-09T16:54:19.321Z,3.20
2023-04-09T16:57:07.285Z,2.73
2023-04-09T16:59:54.267Z,3.20
2023-04-09T17:02:41.374Z,3.07
2023-04-09T17:05:28.526Z,2.90
2023-04-09T17:08:35.910Z,3.43
2023-04-09T17:11:23.679Z,2.53
2023-04-09T17:14:12.157Z,2.37
2023-04-09T17:16:59.109Z,2.83
2023-04-09T17:19:46.189Z,2.73
2023-04-09T17:22:35.075Z,2.43
2023-04-09T17:25:22.057Z,2.43
2023-04-09T17:28:09.241Z,2.53
2023-04-09T17:30:57.451Z,2.40
2023-04-09T17:33:47.949Z,2.60
2023-04-09T17:36:35.034Z,1.90
2023-04-09T17:39:24.106Z,2.20
2023-04-09T17:42:11.902Z,2.80
2023-04-09T17:44:59.133Z,2.50
2023-04-09T17:47:47.985Z,2.67
2023-04-09T17:50:35.110Z,2.20
2023-04-09T17:53:22.454Z,2.53
2023-04-09T17:56:11.113Z,2.17
2023-04-09T17:58:58.140Z,2.13
2023-04-09T18:01:45.145Z,1.57
2023-04-09T18:04:35.425Z,1.60
2023-04-09T18:07:23.043Z,1.90
2023-04-09T18:10:10.483Z,1.53
2023-04-09T18:12:57.445Z,1.77
2023-04-09T18:15:44.824Z,2.10
2023-04-09T18:18:31.409Z,1.83
2023-04-09T18:21:19.574Z,1.97
2023-04-09T18:24:06.750Z,1.77
2023-04-09T18:26:54.298Z,1.90
2023-04-09T18:29:41.847Z,1.57
2023-04-09T18:32:28.790Z,2.00
2023-04-09T18:35:17.469Z,1.80
2023-04-09T18:38:05.760Z,2.13
2023-04-09T18:40:52.374Z,2.00
2023-04-09T18:43:39.158Z,1.93
2023-04-09T18:46:26.656Z,1.83
2023-04-09T18:49:13.763Z,2.00
2023-04-09T18:52:00.826Z,1.93
2023-04-09T18:54:49.192Z,2.33
2023-04-09T18:57:37.353Z,3.83
2023-04-09T19:00:24.505Z,2.83
2023-04-09T19:03:12.274Z,2.70
2023-04-09T19:06:00.174Z,2.20
2023-04-09T19:08:47.558Z,2.10
2023-04-09T19:11:35.876Z,1.77
2023-04-09T19:14:23.118Z,1.97
2023-04-09T19:17:10.143Z,2.33
2023-04-09T19:19:57.083Z,1.73
2023-04-09T19:22:47.916Z,2.30
2023-04-09T19:25:35.262Z,2.00
2023-04-09T19:28:23.519Z,2.00
2023-04-09T19:31:12.747Z,2.00
2023-04-09T19:33:59.378Z,2.00
2023-04-09T19:36:46.231Z,2.30
2023-04-09T19:39:34.387Z,2.50
2023-04-09T19:42:21.264Z,2.20
2023-04-09T19:45:11.089Z,2.20
2023-04-09T19:47:58.403Z,2.00
2023-04-09T19:50:45.436Z,2.27
2023-04-09T19:53:32.857Z,2.03
2023-04-09T19:56:20.031Z,2.50
2023-04-09T19:59:07.330Z,2.27
2023-04-09T20:01:55.734Z,2.23
2023-04-09T20:04:42.690Z,2.20
2023-04-09T20:07:29.660Z,2.13
2023-04-09T20:10:17.038Z,2.13
2023-04-09T20:13:03.984Z,2.57
2023-04-09T20:15:51.492Z,2.20
2023-04-09T20:18:39.855Z,2.33
2023-04-09T20:21:37.981Z,2.83
2023-04-09T20:24:26.977Z,2.83
2023-04-09T20:27:13.950Z,2.50
2023-04-09T20:30:01.835Z,2.27
2023-04-09T20:32:49.734Z,3.07
2023-04-09T20:35:38.545Z,2.90
2023-04-09T20:38:26.208Z,3.00
2023-04-09T20:41:13.263Z,2.97
2023-04-09T20:43:59.858Z,3.47
2023-04-09T20:46:46.776Z,2.90
2023-04-09T20:49:34.006Z,2.20
2023-04-09T20:52:23.569Z,2.53
2023-04-09T20:55:10.751Z,3.20
2023-04-09T20:57:58.436Z,3.03
2023-04-09T21:00:45.733Z,2.23
2023-04-09T21:03:33.078Z,2.70
2023-04-09T21:06:20.393Z,3.13
2023-04-09T21:09:08.840Z,2.87
2023-04-09T21:11:55.442Z,3.60
2023-04-09T21:14:42.347Z,2.30
2023-04-09T21:17:29.384Z,2.57
2023-04-09T21:20:16.799Z,2.50
2023-04-09T21:23:03.438Z,2.83
2023-04-09T21:25:51.453Z,2.73
2023-04-09T21:28:38.621Z,2.80
2023-04-09T21:31:25.997Z,2.50
2023-04-09T21:34:12.926Z,3.40
2023-04-09T21:36:59.954Z,3.27
2023-04-09T21:39:48.254Z,2.53
2023-04-09T21:42:36.340Z,3.10
2023-04-09T21:45:23.623Z,2.73
2023-04-09T21:48:10.136Z,2.87
2023-04-09T21:50:57.153Z,2.93
2023-04-09T21:53:44.509Z,2.50
2023-04-09T21:56:31.391Z,2.10
2023-04-09T21:59:19.435Z,2.57
2023-04-09T22:02:06.853Z,2.23
2023-04-09T22:04:53.789Z,2.30
2023-04-09T22:07:42.624Z,2.70
2023-04-09T22:10:29.658Z,2.53
2023-04-09T22:13:17.193Z,1.93
2023-04-09T22:16:06.061Z,2.13
2023-04-09T22:18:55.016Z,2.27
2023-04-09T22:21:42.327Z,2.13
2023-04-09T22:24:30.306Z,2.30
2023-04-09T22:27:17.446Z,3.07
2023-04-09T22:30:04.796Z,2.63
2023-04-09T22:32:52.961Z,2.57
2023-04-09T22:35:40.106Z,2.20
2023-04-09T22:38:27.273Z,2.30
2023-04-09T22:41:16.034Z,2.23
2023-04-09T22:44:02.680Z,2.37
2023-04-09T22:46:49.831Z,2.70
2023-04-09T22:49:38.728Z,2.37
2023-04-09T22:52:25.694Z,2.43
2023-04-09T22:55:13.680Z,2.53
2023-04-09T22:58:01.049Z,2.20
2023-04-09T23:00:48.287Z,2.30
2023-04-09T23:03:35.672Z,2.33
2023-04-09T23:06:25.251Z,2.13
2023-04-09T23:09:12.604Z,2.07
2023-04-09T23:11:59.624Z,2.47
2023-04-09T23:14:49.315Z,1.87
2023-04-09T23:17:36.936Z,2.60
2023-04-09T23:20:24.444Z,2.70
2023-04-09T23:23:12.568Z,2.63
2023-04-09T23:25:59.703Z,2.43
2023-04-09T23:28:46.871Z,2.53
2023-04-09T23:31:34.245Z,2.83
2023-04-09T23:34:21.227Z,2.23
2023-04-09T23:37:09.396Z,2.60
2023-04-09T23:40:00.185Z,2.43
2023-04-09T23:42:48.014Z,2.10
2023-04-09T23:45:35.366Z,2.60
2023-04-09T23:48:22.365Z,2.30
2023-04-09T23:51:09.360Z,2.53
2023-04-09T23:53:56.563Z,2.77
2023-04-09T23:56:45.014Z,2.30
2023-04-09T23:59:35.647Z,2.80
